Westport, Oklahoma
Current Conditions -  °F | °C
As of 10:55 AM on Monday 22 Dec 2014 (Local Time) from KOWP Reporting Station
Haze Haze  
Wind Chill: 11°   Ceiling: 1300
Heat Index: 11°   Visibility: 3mi
Dew Point: 10°   Wind: 0mph
Humidity: 95%   Direction: NA
Pressure: 29.57"   Gusts: NA
Location:  36.248°N, 96.4789°W
Report Text: KOWP 221655Z AUTO 00000KT 3SM BR SCT004 BKN013 OVC029 11/10 A2957 RMK AO2 T01080100
Loading
Personal Weather Stations






























Interactive Weather Map New forecast layout! Learn more

10-Day Weather Forecast

Advertisements
Track Severe Weather on mobile